CDT,Max TemperatureF,Mean TemperatureF,Min TemperatureF,Max Dew PointF,MeanDew PointF,Min DewpointF,Max Humidity, Mean Humidity, Min Humidity, Max Sea Level PressureIn, Mean Sea Level PressureIn, Min Sea Level PressureIn, Max VisibilityMiles, Mean VisibilityMiles, Min VisibilityMiles, Max Wind SpeedMPH, Mean Wind SpeedMPH, Max Gust SpeedMPH,PrecipitationIn, CloudCover, Events, WindDirDegrees
2013-7-1,80,68,57,61,53,45,88,60,32,30.08,30.05,30.00,10,10,5,16,7,25,0.00,1,,10
2013-7-2,80,66,53,55,51,48,82,56,34,30.13,30.10,30.07,10,10,9,13,5,20,0.00,0,,7
2013-7-3,84,68,53,55,49,46,82,55,27,30.15,30.11,30.04,10,10,10,7,3,,0.00,0,,115
2013-7-4,,,,,,,,,,,,,,,,,,,,,,
2013-7-5,,,,,,,,,,,,,,,,,,,,,,
2013-7-6,,,,,,,,,,,,,,,,,,,,,,
2013-7-7,,,,,,,,,,,,,,,,,,,,,,
2013-7-8,93,86,77,70,66,64,65,50,41,30.14,30.10,30.06,10,10,10,14,9,20,0.00,1,,193
2013-7-9,95,84,73,70,66,64,78,57,39,30.14,30.08,30.02,10,10,10,18,9,23,0.00,0,,199
2013-7-10,100,86,73,70,66,63,69,54,35,30.06,30.02,29.93,10,10,10,14,6,22,0.00,1,Thunderstorm,224
2013-7-11,95,82,69,70,65,61,83,57,34,30.06,30.02,29.95,10,10,8,8,3,16,0.00,0,,68
2013-7-12,93,81,69,68,63,57,69,53,36,30.08,30.04,30.00,10,10,6,9,5,,0.00,1,,118
2013-7-13,91,78,64,63,58,55,78,52,35,30.09,30.05,30.00,10,10,9,10,5,,0.00,0,,120
2013-7-14,87,76,64,59,55,52,73,47,29,30.10,30.04,30.01,10,10,10,13,6,20,0.00,1,,116
2013-7-15,87,78,69,66,62,55,73,59,45,30.22,30.14,30.08,10,10,9,16,5,24,0.00,2,,121
2013-7-16,87,78,68,70,66,63,88,76,51,30.30,30.26,30.21,10,9,2,14,4,24,2.67,3,Thunderstorm,110
2013-7-17,91,80,69,70,66,64,88,64,41,30.36,30.30,30.22,10,9,5,12,5,,0.00,0,,125
2013-7-18,93,81,69,70,66,63,78,60,38,30.26,30.18,30.07,10,10,10,10,3,,0.00,1,Thunderstorm,198
2013-7-19,93,81,69,70,65,63,78,64,41,30.09,30.04,29.97,10,10,10,18,4,22,0.00,0,,211
2013-7-20,93,81,69,70,66,63,83,65,43,30.02,29.97,29.88,10,10,10,15,7,21,0.00,1,,194
2013-7-21,84,76,69,72,66,63,83,73,61,30.00,29.94,29.88,10,9,4,13,5,,0.13,4,,161
2013-7-22,91,81,71,70,65,57,74,61,41,30.03,29.93,29.88,10,10,7,25,9,32,0.00,1,Thunderstorm,177
2013-7-23,96,84,73,72,69,63,78,61,41,30.01,29.91,29.83,10,10,5,28,9,38,0.59,2,Thunderstorm,248
2013-7-24,84,75,66,68,65,61,88,71,55,30.06,30.01,29.91,10,10,5,23,10,30,0.72,4,Thunderstorm,4
2013-7-25,86,76,66,68,65,63,88,69,51,30.12,30.09,30.06,10,10,5,8,2,,0.00,0,,129
2013-7-26,73,70,66,66,65,63,88,80,73,30.08,30.05,30.02,10,8,2,9,4,,0.41,6,,120
2013-7-27,80,72,64,64,61,55,88,70,47,30.09,30.05,30.00,10,8,0,9,3,,0.00,3,,349
2013-7-28,82,73,64,64,60,55,83,68,48,30.08,30.05,30.02,10,10,9,10,4,16,0.00,2,,65
2013-7-29,86,76,66,70,67,61,83,70,58,30.09,30.06,30.01,10,10,10,17,9,22,0.00,3,,141
2013-7-30,86,78,69,72,69,64,88,72,58,30.09,30.05,30.02,10,10,4,14,8,36,1.94,6,Thunderstorm,211
2013-7-31,84,78,73,72,70,66,89,81,66,30.11,30.08,30.04,10,7,1,7,2,,0.00,5,Thunderstorm,57